sensor_id;sensor_type;location;lat;lon;timestamp;pressure;altitude;pressure_sealevel;temperature;humidity
72423;BME280;71399;54.146;38.734;2023-07-13T00:01:58;97313.66;;;12.28;100.00
72423;BME280;71399;54.146;38.734;2023-07-13T00:04:25;97314.75;;;12.27;100.00
72423;BME280;71399;54.146;38.734;2023-07-13T00:06:51;97314.75;;;12.27;100.00
72423;BME280;71399;54.146;38.734;2023-07-13T00:09:18;97323.75;;;12.26;100.00
72423;BME280;71399;54.146;38.734;2023-07-13T00:11:49;97308.59;;;12.17;100.00
72423;BME280;71399;54.146;38.734;2023-07-13T00:14:16;97321.97;;;12.21;100.00
72423;BME280;71399;54.146;38.734;2023-07-13T00:16:43;97313.09;;;12.17;100.00
72423;BME280;71399;54.146;38.734;2023-07-13T00:19:10;97321.31;;;12.15;100.00
72423;BME280;71399;54.146;38.734;2023-07-13T00:21:38;97317.09;;;12.14;100.00
72423;BME280;71399;54.146;38.734;2023-07-13T00:24:06;97327.06;;;12.17;100.00
72423;BME280;71399;54.146;38.734;2023-07-13T00:26:32;97320.09;;;12.08;100.00
72423;BME280;71399;54.146;38.734;2023-07-13T00:28:59;97324.53;;;12.12;100.00
72423;BME280;71399;54.146;38.734;2023-07-13T00:31:26;97319.63;;;12.05;100.00
72423;BME280;71399;54.146;38.734;2023-07-13T00:33:52;97334.13;;;12.08;100.00
72423;BME280;71399;54.146;38.734;2023-07-13T00:36:19;97334.13;;;12.08;100.00
72423;BME280;71399;54.146;38.734;2023-07-13T00:38:46;97336.75;;;12.08;100.00
72423;BME280;71399;54.146;38.734;2023-07-13T00:41:13;97337.81;;;12.07;100.00
72423;BME280;71399;54.146;38.734;2023-07-13T00:43:39;97338.09;;;12.05;100.00
72423;BME280;71399;54.146;38.734;2023-07-13T00:46:14;97344.97;;;12.07;100.00
72423;BME280;71399;54.146;38.734;2023-07-13T00:48:43;97344.16;;;12.06;100.00
72423;BME280;71399;54.146;38.734;2023-07-13T00:51:10;97329.59;;;11.95;100.00
72423;BME280;71399;54.146;38.734;2023-07-13T00:53:36;97342.31;;;12.07;100.00
72423;BME280;71399;54.146;38.734;2023-07-13T00:56:03;97351.31;;;12.05;100.00
72423;BME280;71399;54.146;38.734;2023-07-13T00:58:30;97346.31;;;12.04;100.00
72423;BME280;71399;54.146;38.734;2023-07-13T01:00:57;97350.94;;;12.12;100.00
72423;BME280;71399;54.146;38.734;2023-07-13T01:03:23;97357.78;;;12.13;100.00
72423;BME280;71399;54.146;38.734;2023-07-13T01:05:50;97355.63;;;12.15;100.00
72423;BME280;71399;54.146;38.734;2023-07-13T01:08:21;97354.56;;;12.16;100.00
72423;BME280;71399;54.146;38.734;2023-07-13T01:10:55;97345.44;;;12.09;100.00
72423;BME280;71399;54.146;38.734;2023-07-13T01:13:21;97349.66;;;12.10;100.00
72423;BME280;71399;54.146;38.734;2023-07-13T01:15:50;97356.41;;;12.16;100.00
72423;BME280;71399;54.146;38.734;2023-07-13T01:18:26;97356.91;;;12.18;100.00
72423;BME280;71399;54.146;38.734;2023-07-13T01:21:01;97351.63;;;12.18;100.00
72423;BME280;71399;54.146;38.734;2023-07-13T01:23:30;97345.25;;;12.19;100.00
72423;BME280;71399;54.146;38.734;2023-07-13T01:25:57;97345.25;;;12.19;100.00
72423;BME280;71399;54.146;38.734;2023-07-13T01:28:25;97350.34;;;12.15;100.00
72423;BME280;71399;54.146;38.734;2023-07-13T01:30:54;97344.78;;;12.17;100.00
72423;BME280;71399;54.146;38.734;2023-07-13T01:33:22;97348.19;;;12.17;100.00
72423;BME280;71399;54.146;38.734;2023-07-13T01:35:49;97349.78;;;12.18;100.00
72423;BME280;71399;54.146;38.734;2023-07-13T01:38:18;97331.38;;;12.13;100.00
72423;BME280;71399;54.146;38.734;2023-07-13T01:40:44;97331.09;;;12.15;100.00
72423;BME280;71399;54.146;38.734;2023-07-13T01:43:10;97331.88;;;12.15;100.00
72423;BME280;71399;54.146;38.734;2023-07-13T01:45:37;97333.06;;;12.23;100.00
72423;BME280;71399;54.146;38.734;2023-07-13T01:48:03;97329.91;;;12.21;100.00
72423;BME280;71399;54.146;38.734;2023-07-13T01:50:33;97333.84;;;12.23;100.00
72423;BME280;71399;54.146;38.734;2023-07-13T01:52:59;97330.19;;;12.19;100.00
72423;BME280;71399;54.146;38.734;2023-07-13T01:55:25;97335.47;;;12.19;100.00
72423;BME280;71399;54.146;38.734;2023-07-13T01:57:51;97331.78;;;12.20;100.00
72423;BME280;71399;54.146;38.734;2023-07-13T02:00:18;97336.75;;;12.22;100.00
72423;BME280;71399;54.146;38.734;2023-07-13T02:02:47;97331.00;;;12.20;100.00
72423;BME280;71399;54.146;38.734;2023-07-13T02:05:13;97342.44;;;12.29;100.00
72423;BME280;71399;54.146;38.734;2023-07-13T02:07:41;97336.38;;;12.29;100.00
72423;BME280;71399;54.146;38.734;2023-07-13T02:10:09;97316.41;;;12.22;100.00
72423;BME280;71399;54.146;38.734;2023-07-13T02:12:36;97327.56;;;12.33;100.00
72423;BME280;71399;54.146;38.734;2023-07-13T02:15:04;97331.19;;;12.37;100.00
72423;BME280;71399;54.146;38.734;2023-07-13T02:17:32;97312.03;;;12.32;100.00
72423;BME280;71399;54.146;38.734;2023-07-13T02:19:58;97321.19;;;12.34;100.00
72423;BME280;71399;54.146;38.734;2023-07-13T02:22:24;97322.19;;;12.38;100.00
72423;BME280;71399;54.146;38.734;2023-07-13T02:24:50;97311.44;;;12.35;100.00
72423;BME280;71399;54.146;38.734;2023-07-13T02:27:18;97319.56;;;12.38;100.00
72423;BME280;71399;54.146;38.734;2023-07-13T02:29:44;97299.78;;;12.36;100.00
72423;BME280;71399;54.146;38.734;2023-07-13T02:32:10;97309.06;;;12.47;100.00
72423;BME280;71399;54.146;38.734;2023-07-13T02:34:37;97309.25;;;12.51;100.00
72423;BME280;71399;54.146;38.734;2023-07-13T02:37:04;97315.25;;;12.56;100.00
72423;BME280;71399;54.146;38.734;2023-07-13T02:39:30;97312.50;;;12.62;100.00
72423;BME280;71399;54.146;38.734;2023-07-13T02:41:59;97300.66;;;12.59;100.00
72423;BME280;71399;54.146;38.734;2023-07-13T02:44:26;97295.25;;;12.64;100.00
72423;BME280;71399;54.146;38.734;2023-07-13T02:46:52;97286.56;;;12.64;100.00
72423;BME280;71399;54.146;38.734;2023-07-13T02:49:18;97288.38;;;12.77;100.00
72423;BME280;71399;54.146;38.734;2023-07-13T02:51:44;97279.69;;;12.76;100.00
72423;BME280;71399;54.146;38.734;2023-07-13T02:54:10;97278.06;;;12.89;100.00
72423;BME280;71399;54.146;38.734;2023-07-13T02:56:40;97288.53;;;12.94;100.00
72423;BME280;71399;54.146;38.734;2023-07-13T02:59:06;97270.31;;;12.93;100.00
72423;BME280;71399;54.146;38.734;2023-07-13T03:01:32;97263.53;;;13.01;100.00
72423;BME280;71399;54.146;38.734;2023-07-13T03:04:02;97258.84;;;12.97;100.00
72423;BME280;71399;54.146;38.734;2023-07-13T03:06:31;97250.44;;;12.95;100.00
72423;BME280;71399;54.146;38.734;2023-07-13T03:08:59;97251.59;;;13.03;100.00
72423;BME280;71399;54.146;38.734;2023-07-13T03:11:27;97259.00;;;13.15;100.00
72423;BME280;71399;54.146;38.734;2023-07-13T03:14:02;97238.50;;;13.21;100.00
72423;BME280;71399;54.146;38.734;2023-07-13T03:16:31;97234.94;;;13.25;100.00
72423;BME280;71399;54.146;38.734;2023-07-13T03:18:58;97222.88;;;13.33;100.00
72423;BME280;71399;54.146;38.734;2023-07-13T03:21:25;97230.56;;;13.43;100.00
72423;BME280;71399;54.146;38.734;2023-07-13T03:23:51;97219.88;;;13.48;100.00
72423;BME280;71399;54.146;38.734;2023-07-13T03:26:19;97240.72;;;13.50;100.00
72423;BME280;71399;54.146;38.734;2023-07-13T03:28:46;97245.09;;;13.55;100.00
72423;BME280;71399;54.146;38.734;2023-07-13T03:31:19;97242.31;;;13.60;100.00
72423;BME280;71399;54.146;38.734;2023-07-13T03:33:46;97242.50;;;13.63;100.00
72423;BME280;71399;54.146;38.734;2023-07-13T03:36:18;97248.47;;;13.78;100.00
72423;BME280;71399;54.146;38.734;2023-07-13T03:39:05;97256.00;;;13.84;100.00
72423;BME280;71399;54.146;38.734;2023-07-13T03:41:46;97260.53;;;13.93;100.00
72423;BME280;71399;54.146;38.734;2023-07-13T03:44:13;97256.84;;;14.02;100.00
72423;BME280;71399;54.146;38.734;2023-07-13T03:46:39;97264.34;;;14.09;100.00
72423;BME280;71399;54.146;38.734;2023-07-13T03:49:05;97265.81;;;14.24;100.00
72423;BME280;71399;54.146;38.734;2023-07-13T03:51:32;97301.50;;;14.26;100.00
72423;BME280;71399;54.146;38.734;2023-07-13T03:54:00;97285.16;;;14.33;100.00
72423;BME280;71399;54.146;38.734;2023-07-13T03:56:26;97310.72;;;14.29;100.00
72423;BME280;71399;54.146;38.734;2023-07-13T03:58:53;97314.28;;;14.24;100.00
72423;BME280;71399;54.146;38.734;2023-07-13T04:01:22;97306.47;;;14.19;100.00
72423;BME280;71399;54.146;38.734;2023-07-13T04:03:49;97307.69;;;14.13;100.00
72423;BME280;71399;54.146;38.734;2023-07-13T04:06:18;97299.06;;;13.99;100.00
72423;BME280;71399;54.146;38.734;2023-07-13T04:08:49;97288.94;;;14.01;100.00
72423;BME280;71399;54.146;38.734;2023-07-13T04:11:17;97294.56;;;14.08;100.00
72423;BME280;71399;54.146;38.734;2023-07-13T04:13:44;97289.63;;;14.15;100.00
72423;BME280;71399;54.146;38.734;2023-07-13T04:16:12;97282.75;;;14.14;100.00
72423;BME280;71399;54.146;38.734;2023-07-13T04:18:38;97300.88;;;14.30;100.00
72423;BME280;71399;54.146;38.734;2023-07-13T04:21:04;97298.72;;;14.32;100.00
72423;BME280;71399;54.146;38.734;2023-07-13T04:23:31;97339.75;;;14.43;100.00
72423;BME280;71399;54.146;38.734;2023-07-13T04:25:57;97356.91;;;14.45;100.00
72423;BME280;71399;54.146;38.734;2023-07-13T04:28:25;97374.50;;;14.41;100.00
72423;BME280;71399;54.146;38.734;2023-07-13T04:30:52;97381.22;;;14.39;100.00
72423;BME280;71399;54.146;38.734;2023-07-13T04:33:18;97356.88;;;14.37;100.00
72423;BME280;71399;54.146;38.734;2023-07-13T04:35:52;97373.09;;;14.35;100.00
72423;BME280;71399;54.146;38.734;2023-07-13T04:38:23;97375.88;;;14.30;100.00
72423;BME280;71399;54.146;38.734;2023-07-13T04:40:51;97364.47;;;14.30;100.00
72423;BME280;71399;54.146;38.734;2023-07-13T04:43:18;97371.50;;;14.25;100.00
72423;BME280;71399;54.146;38.734;2023-07-13T04:45:45;97371.19;;;14.27;100.00
72423;BME280;71399;54.146;38.734;2023-07-13T04:48:11;97369.00;;;14.29;100.00
72423;BME280;71399;54.146;38.734;2023-07-13T04:50:37;97362.78;;;14.34;100.00
72423;BME280;71399;54.146;38.734;2023-07-13T04:53:04;97368.72;;;14.39;100.00
72423;BME280;71399;54.146;38.734;2023-07-13T04:55:30;97360.19;;;14.42;100.00
72423;BME280;71399;54.146;38.734;2023-07-13T04:57:57;97378.13;;;14.45;100.00
72423;BME280;71399;54.146;38.734;2023-07-13T05:00:27;97360.50;;;14.50;100.00
72423;BME280;71399;54.146;38.734;2023-07-13T05:02:55;97362.81;;;14.42;100.00
72423;BME280;71399;54.146;38.734;2023-07-13T05:05:21;97369.50;;;14.40;100.00
72423;BME280;71399;54.146;38.734;2023-07-13T05:07:47;97366.38;;;14.38;100.00
72423;BME280;71399;54.146;38.734;2023-07-13T05:10:13;97336.91;;;14.31;100.00
72423;BME280;71399;54.146;38.734;2023-07-13T05:12:39;97354.47;;;14.26;100.00
72423;BME280;71399;54.146;38.734;2023-07-13T05:15:06;97344.53;;;14.23;100.00
72423;BME280;71399;54.146;38.734;2023-07-13T05:17:33;97321.16;;;14.25;100.00
72423;BME280;71399;54.146;38.734;2023-07-13T05:19:59;97282.63;;;14.19;100.00
72423;BME280;71399;54.146;38.734;2023-07-13T05:22:25;97292.00;;;14.25;100.00
72423;BME280;71399;54.146;38.734;2023-07-13T05:24:51;97264.53;;;14.21;100.00
72423;BME280;71399;54.146;38.734;2023-07-13T05:27:17;97248.19;;;14.19;100.00
72423;BME280;71399;54.146;38.734;2023-07-13T05:29:43;97220.44;;;14.17;100.00
72423;BME280;71399;54.146;38.734;2023-07-13T05:32:10;97201.59;;;14.18;100.00
72423;BME280;71399;54.146;38.734;2023-07-13T05:34:36;97198.16;;;14.26;100.00
72423;BME280;71399;54.146;38.734;2023-07-13T05:37:02;97194.28;;;14.33;100.00
72423;BME280;71399;54.146;38.734;2023-07-13T05:39:28;97198.50;;;14.34;100.00
72423;BME280;71399;54.146;38.734;2023-07-13T05:41:55;97196.63;;;14.25;100.00
72423;BME280;71399;54.146;38.734;2023-07-13T05:44:21;97185.69;;;14.18;100.00
72423;BME280;71399;54.146;38.734;2023-07-13T05:46:47;97174.91;;;14.06;100.00
72423;BME280;71399;54.146;38.734;2023-07-13T05:49:13;97181.94;;;14.11;100.00
72423;BME280;71399;54.146;38.734;2023-07-13T05:51:40;97176.03;;;14.14;100.00
72423;BME280;71399;54.146;38.734;2023-07-13T05:54:07;97186.00;;;14.17;100.00
72423;BME280;71399;54.146;38.734;2023-07-13T05:56:33;97174.31;;;14.18;100.00
72423;BME280;71399;54.146;38.734;2023-07-13T05:58:59;97197.22;;;14.31;100.00
72423;BME280;71399;54.146;38.734;2023-07-13T06:01:25;97193.81;;;14.31;100.00
72423;BME280;71399;54.146;38.734;2023-07-13T06:03:51;97189.59;;;14.30;100.00
72423;BME280;71399;54.146;38.734;2023-07-13T06:06:17;97206.75;;;14.23;100.00
72423;BME280;71399;54.146;38.734;2023-07-13T06:08:43;97213.28;;;14.35;100.00
72423;BME280;71399;54.146;38.734;2023-07-13T06:11:15;97214.88;;;14.36;100.00
72423;BME280;71399;54.146;38.734;2023-07-13T06:13:41;97229.84;;;14.40;100.00
72423;BME280;71399;54.146;38.734;2023-07-13T06:16:08;97226.00;;;14.64;100.00
72423;BME280;71399;54.146;38.734;2023-07-13T06:18:35;97238.47;;;14.81;100.00
72423;BME280;71399;54.146;38.734;2023-07-13T06:21:13;97264.53;;;14.88;100.00
72423;BME280;71399;54.146;38.734;2023-07-13T06:23:40;97256.41;;;15.01;100.00
72423;BME280;71399;54.146;38.734;2023-07-13T06:26:06;97295.91;;;15.03;100.00
72423;BME280;71399;54.146;38.734;2023-07-13T06:28:35;97278.75;;;15.09;100.00
72423;BME280;71399;54.146;38.734;2023-07-13T06:31:04;97307.16;;;15.26;100.00
72423;BME280;71399;54.146;38.734;2023-07-13T06:33:30;97284.97;;;15.40;100.00
72423;BME280;71399;54.146;38.734;2023-07-13T06:35:56;97301.19;;;15.55;100.00
72423;BME280;71399;54.146;38.734;2023-07-13T06:38:22;97324.28;;;15.72;100.00
72423;BME280;71399;54.146;38.734;2023-07-13T06:40:49;97334.91;;;15.81;100.00
72423;BME280;71399;54.146;38.734;2023-07-13T06:43:15;97336.91;;;15.93;100.00
72423;BME280;71399;54.146;38.734;2023-07-13T06:45:43;97360.31;;;16.08;100.00
72423;BME280;71399;54.146;38.734;2023-07-13T06:48:11;97390.44;;;16.21;100.00
72423;BME280;71399;54.146;38.734;2023-07-13T06:50:38;97383.38;;;16.25;100.00
72423;BME280;71399;54.146;38.734;2023-07-13T06:53:04;97394.19;;;16.29;100.00
72423;BME280;71399;54.146;38.734;2023-07-13T06:55:30;97400.31;;;16.21;100.00
72423;BME280;71399;54.146;38.734;2023-07-13T06:57:56;97403.13;;;16.16;100.00
72423;BME280;71399;54.146;38.734;2023-07-13T07:00:23;97407.97;;;16.14;100.00
72423;BME280;71399;54.146;38.734;2023-07-13T07:02:49;97406.53;;;16.25;100.00
72423;BME280;71399;54.146;38.734;2023-07-13T07:05:15;97372.53;;;16.48;100.00
72423;BME280;71399;54.146;38.734;2023-07-13T07:07:41;97397.84;;;16.54;100.00
72423;BME280;71399;54.146;38.734;2023-07-13T07:10:08;97387.06;;;16.51;100.00
72423;BME280;71399;54.146;38.734;2023-07-13T07:12:34;97369.91;;;16.39;100.00
72423;BME280;71399;54.146;38.734;2023-07-13T07:15:00;97377.94;;;16.30;100.00
72423;BME280;71399;54.146;38.734;2023-07-13T07:17:26;97319.34;;;16.09;100.00
72423;BME280;71399;54.146;38.734;2023-07-13T07:19:52;97257.69;;;15.86;100.00
72423;BME280;71399;54.146;38.734;2023-07-13T07:22:21;97239.16;;;15.78;100.00
72423;BME280;71399;54.146;38.734;2023-07-13T07:24:47;97196.03;;;15.72;100.00
72423;BME280;71399;54.146;38.734;2023-07-13T07:27:13;97165.03;;;15.85;100.00
72423;BME280;71399;54.146;38.734;2023-07-13T07:29:39;97162.84;;;16.17;100.00
72423;BME280;71399;54.146;38.734;2023-07-13T07:32:06;97153.72;;;16.47;100.00
72423;BME280;71399;54.146;38.734;2023-07-13T07:34:32;97198.25;;;16.72;100.00
72423;BME280;71399;54.146;38.734;2023-07-13T07:37:02;97288.78;;;16.84;100.00
72423;BME280;71399;54.146;38.734;2023-07-13T07:39:28;97261.03;;;16.94;100.00
72423;BME280;71399;54.146;38.734;2023-07-13T07:41:55;97252.53;;;17.34;100.00
72423;BME280;71399;54.146;38.734;2023-07-13T07:44:21;97366.91;;;17.51;100.00
72423;BME280;71399;54.146;38.734;2023-07-13T07:46:48;97283.50;;;17.72;100.00
72423;BME280;71399;54.146;38.734;2023-07-13T07:49:15;97344.56;;;17.77;100.00
72423;BME280;71399;54.146;38.734;2023-07-13T07:51:41;97428.66;;;17.66;100.00
72423;BME280;71399;54.146;38.734;2023-07-13T07:54:07;97423.28;;;17.53;100.00
72423;BME280;71399;54.146;38.734;2023-07-13T07:56:33;97413.19;;;17.59;100.00
72423;BME280;71399;54.146;38.734;2023-07-13T07:58:59;97412.75;;;17.78;100.00
72423;BME280;71399;54.146;38.734;2023-07-13T08:01:25;97493.84;;;18.10;100.00
72423;BME280;71399;54.146;38.734;2023-07-13T08:03:51;97508.00;;;18.44;100.00
72423;BME280;71399;54.146;38.734;2023-07-13T08:06:18;97511.59;;;18.73;100.00
72423;BME280;71399;54.146;38.734;2023-07-13T08:08:45;97581.75;;;18.95;100.00
72423;BME280;71399;54.146;38.734;2023-07-13T08:11:12;97565.31;;;19.30;100.00
72423;BME280;71399;54.146;38.734;2023-07-13T08:13:38;97595.25;;;19.60;100.00
72423;BME280;71399;54.146;38.734;2023-07-13T08:16:05;97652.19;;;19.85;100.00
72423;BME280;71399;54.146;38.734;2023-07-13T08:18:32;97680.59;;;20.02;100.00
72423;BME280;71399;54.146;38.734;2023-07-13T08:20:58;97595.44;;;20.16;100.00
72423;BME280;71399;54.146;38.734;2023-07-13T08:23:25;97764.16;;;20.24;100.00
72423;BME280;71399;54.146;38.734;2023-07-13T08:25:52;97739.41;;;20.27;100.00
72423;BME280;71399;54.146;38.734;2023-07-13T08:28:22;97795.25;;;20.41;100.00
72423;BME280;71399;54.146;38.734;2023-07-13T08:30:48;97830.59;;;20.34;100.00
72423;BME280;71399;54.146;38.734;2023-07-13T08:33:19;97922.75;;;20.24;100.00
72423;BME280;71399;54.146;38.734;2023-07-13T08:35:49;97928.09;;;20.12;100.00
72423;BME280;71399;54.146;38.734;2023-07-13T08:38:17;97982.53;;;19.95;100.00
72423;BME280;71399;54.146;38.734;2023-07-13T08:40:43;98022.84;;;19.90;100.00
72423;BME280;71399;54.146;38.734;2023-07-13T08:43:19;98059.53;;;19.80;100.00
72423;BME280;71399;54.146;38.734;2023-07-13T08:45:50;98016.00;;;19.80;100.00
72423;BME280;71399;54.146;38.734;2023-07-13T08:48:32;97997.72;;;19.82;100.00
72423;BME280;71399;54.146;38.734;2023-07-13T08:51:09;98139.91;;;20.05;100.00
72423;BME280;71399;54.146;38.734;2023-07-13T08:53:52;98132.09;;;20.21;100.00
72423;BME280;71399;54.146;38.734;2023-07-13T08:56:23;98228.75;;;20.41;100.00
72423;BME280;71399;54.146;38.734;2023-07-13T08:59:00;98218.41;;;20.60;100.00
72423;BME280;71399;54.146;38.734;2023-07-13T09:04:32;98259.91;;;20.45;100.00
72423;BME280;71399;54.146;38.734;2023-07-13T09:07:22;98307.00;;;20.38;100.00
72423;BME280;71399;54.146;38.734;2023-07-13T09:14:58;98233.25;;;20.28;100.00
72423;BME280;71399;54.146;38.734;2023-07-13T09:17:36;98293.44;;;20.13;100.00
72423;BME280;71399;54.146;38.734;2023-07-13T09:20:25;98273.22;;;19.94;100.00
72423;BME280;71399;54.146;38.734;2023-07-13T09:22:53;98280.03;;;19.83;100.00
72423;BME280;71399;54.146;38.734;2023-07-13T09:25:29;98314.00;;;19.83;100.00
72423;BME280;71399;54.146;38.734;2023-07-13T09:28:00;98332.25;;;19.72;100.00
72423;BME280;71399;54.146;38.734;2023-07-13T09:30:34;98309.00;;;19.55;100.00
72423;BME280;71399;54.146;38.734;2023-07-13T09:33:03;98284.97;;;19.37;100.00
72423;BME280;71399;54.146;38.734;2023-07-13T09:35:30;98263.94;;;19.18;100.00
72423;BME280;71399;54.146;38.734;2023-07-13T09:38:14;98237.72;;;19.12;100.00
72423;BME280;71399;54.146;38.734;2023-07-13T09:40:47;98290.00;;;18.95;100.00
72423;BME280;71399;54.146;38.734;2023-07-13T09:43:17;98275.06;;;18.77;100.00
72423;BME280;71399;54.146;38.734;2023-07-13T09:45:46;98286.50;;;18.51;100.00
72423;BME280;71399;54.146;38.734;2023-07-13T09:48:16;98214.25;;;18.47;100.00
72423;BME280;71399;54.146;38.734;2023-07-13T09:50:43;98130.63;;;18.43;100.00
72423;BME280;71399;54.146;38.734;2023-07-13T09:53:15;98099.84;;;18.46;100.00
72423;BME280;71399;54.146;38.734;2023-07-13T09:55:43;98129.19;;;18.46;100.00
72423;BME280;71399;54.146;38.734;2023-07-13T09:58:21;98095.31;;;18.55;100.00
72423;BME280;71399;54.146;38.734;2023-07-13T10:00:59;98120.88;;;18.74;100.00
72423;BME280;71399;54.146;38.734;2023-07-13T10:03:33;98150.25;;;18.91;100.00
72423;BME280;71399;54.146;38.734;2023-07-13T10:06:15;98148.31;;;19.18;100.00
72423;BME280;71399;54.146;38.734;2023-07-13T10:08:43;98131.53;;;19.47;100.00
72423;BME280;71399;54.146;38.734;2023-07-13T10:11:18;98133.75;;;19.84;100.00
72423;BME280;71399;54.146;38.734;2023-07-13T10:14:21;98221.19;;;20.13;100.00
72423;BME280;71399;54.146;38.734;2023-07-13T10:16:58;98224.06;;;20.38;100.00
72423;BME280;71399;54.146;38.734;2023-07-13T10:19:32;98287.56;;;20.58;100.00
72423;BME280;71399;54.146;38.734;2023-07-13T10:22:12;98246.38;;;20.92;100.00
72423;BME280;71399;54.146;38.734;2023-07-13T10:24:40;98286.13;;;21.24;100.00
72423;BME280;71399;54.146;38.734;2023-07-13T10:27:16;98314.16;;;21.26;100.00
72423;BME280;71399;54.146;38.734;2023-07-13T10:30:00;98307.16;;;21.13;100.00
72423;BME280;71399;54.146;38.734;2023-07-13T10:32:29;98321.44;;;21.05;100.00
72423;BME280;71399;54.146;38.734;2023-07-13T10:34:56;98323.31;;;21.04;100.00
72423;BME280;71399;54.146;38.734;2023-07-13T10:40:14;98316.44;;;20.95;100.00
72423;BME280;71399;54.146;38.734;2023-07-13T10:42:47;98339.75;;;20.73;100.00
72423;BME280;71399;54.146;38.734;2023-07-13T10:45:23;98342.59;;;20.77;100.00
72423;BME280;71399;54.146;38.734;2023-07-13T10:47:52;98348.44;;;20.61;100.00
72423;BME280;71399;54.146;38.734;2023-07-13T10:50:28;98345.75;;;20.40;100.00
72423;BME280;71399;54.146;38.734;2023-07-13T10:53:17;98342.97;;;20.19;100.00
72423;BME280;71399;54.146;38.734;2023-07-13T10:58:36;98320.78;;;19.71;100.00
72423;BME280;71399;54.146;38.734;2023-07-13T11:01:09;98308.03;;;19.59;100.00
72423;BME280;71399;54.146;38.734;2023-07-13T11:04:21;98324.69;;;19.65;100.00
72423;BME280;71399;54.146;38.734;2023-07-13T11:06:41;98294.34;;;19.70;100.00
72423;BME280;71399;54.146;38.734;2023-07-13T11:09:33;98302.06;;;19.71;100.00
72423;BME280;71399;54.146;38.734;2023-07-13T11:12:01;98312.72;;;19.89;100.00
72423;BME280;71399;54.146;38.734;2023-07-13T11:14:37;98333.91;;;20.03;100.00
72423;BME280;71399;54.146;38.734;2023-07-13T11:20:22;98342.63;;;20.29;100.00
72423;BME280;71399;54.146;38.734;2023-07-13T11:23:07;98340.13;;;20.24;100.00
72423;BME280;71399;54.146;38.734;2023-07-13T11:25:36;98327.50;;;19.95;100.00
72423;BME280;71399;54.146;38.734;2023-07-13T11:36:15;98329.38;;;20.03;100.00
72423;BME280;71399;54.146;38.734;2023-07-13T11:38:43;98330.09;;;20.12;100.00
72423;BME280;71399;54.146;38.734;2023-07-13T11:41:35;98342.06;;;20.15;100.00
72423;BME280;71399;54.146;38.734;2023-07-13T11:44:15;98329.09;;;20.26;100.00
72423;BME280;71399;54.146;38.734;2023-07-13T11:46:47;98326.38;;;20.43;100.00
72423;BME280;71399;54.146;38.734;2023-07-13T11:49:23;98319.56;;;20.46;100.00
72423;BME280;71399;54.146;38.734;2023-07-13T11:51:51;98337.59;;;20.58;100.00
72423;BME280;71399;54.146;38.734;2023-07-13T11:54:28;98328.25;;;20.72;100.00
72423;BME280;71399;54.146;38.734;2023-07-13T11:57:32;98352.97;;;20.78;100.00
72423;BME280;71399;54.146;38.734;2023-07-13T12:00:02;98340.88;;;20.93;100.00
72423;BME280;71399;54.146;38.734;2023-07-13T12:02:37;98351.06;;;21.00;100.00
72423;BME280;71399;54.146;38.734;2023-07-13T12:05:05;98369.19;;;21.03;100.00
72423;BME280;71399;54.146;38.734;2023-07-13T12:07:33;98375.16;;;21.08;100.00
72423;BME280;71399;54.146;38.734;2023-07-13T12:10:17;98369.47;;;21.10;100.00
72423;BME280;71399;54.146;38.734;2023-07-13T12:13:11;98363.56;;;20.96;100.00
72423;BME280;71399;54.146;38.734;2023-07-13T12:15:40;98365.28;;;21.00;100.00
72423;BME280;71399;54.146;38.734;2023-07-13T12:18:15;98346.66;;;21.04;100.00
72423;BME280;71399;54.146;38.734;2023-07-13T12:20:42;98350.25;;;21.08;100.00
72423;BME280;71399;54.146;38.734;2023-07-13T12:23:26;98343.97;;;21.04;100.00
72423;BME280;71399;54.146;38.734;2023-07-13T12:25:53;98371.88;;;21.03;100.00
72423;BME280;71399;54.146;38.734;2023-07-13T12:31:00;98380.84;;;20.77;100.00
72423;BME280;71399;54.146;38.734;2023-07-13T12:33:31;98364.72;;;20.65;100.00
72423;BME280;71399;54.146;38.734;2023-07-13T12:36:01;98378.22;;;20.60;100.00
72423;BME280;71399;54.146;38.734;2023-07-13T12:38:29;98379.41;;;20.50;100.00
72423;BME280;71399;54.146;38.734;2023-07-13T12:40:56;98387.59;;;20.45;100.00
72423;BME280;71399;54.146;38.734;2023-07-13T12:43:24;98381.81;;;20.34;100.00
72423;BME280;71399;54.146;38.734;2023-07-13T12:46:01;98367.69;;;20.25;100.00
72423;BME280;71399;54.146;38.734;2023-07-13T12:48:27;98353.84;;;20.14;100.00
72423;BME280;71399;54.146;38.734;2023-07-13T12:50:55;98361.44;;;20.12;100.00
72423;BME280;71399;54.146;38.734;2023-07-13T12:53:28;98354.22;;;20.04;100.00
72423;BME280;71399;54.146;38.734;2023-07-13T12:56:00;98362.06;;;20.09;100.00
72423;BME280;71399;54.146;38.734;2023-07-13T12:58:31;98371.66;;;20.01;100.00
72423;BME280;71399;54.146;38.734;2023-07-13T13:01:01;98340.56;;;19.88;100.00
72423;BME280;71399;54.146;38.734;2023-07-13T13:03:38;98334.59;;;19.82;100.00
72423;BME280;71399;54.146;38.734;2023-07-13T13:06:17;98365.75;;;19.78;100.00
72423;BME280;71399;54.146;38.734;2023-07-13T13:08:48;98355.66;;;19.66;100.00
72423;BME280;71399;54.146;38.734;2023-07-13T13:11:19;98348.44;;;19.49;100.00
72423;BME280;71399;54.146;38.734;2023-07-13T13:13:46;98358.06;;;19.41;100.00
72423;BME280;71399;54.146;38.734;2023-07-13T13:16:23;98347.19;;;19.29;100.00
72423;BME280;71399;54.146;38.734;2023-07-13T13:18:51;98326.00;;;19.24;100.00
72423;BME280;71399;54.146;38.734;2023-07-13T13:21:18;98328.19;;;19.22;100.00